createdAt,value
2023-03-29T00:12:03.141Z,55.61
2023-03-29T00:27:05.194Z,54.89
2023-03-29T00:42:09.436Z,55.09
2023-03-29T00:57:16.236Z,54.65
2023-03-29T01:12:23.755Z,57.94
2023-03-29T01:28:04.162Z,56.46
2023-03-29T01:43:30.945Z,56.87
2023-03-29T01:58:36.797Z,54.69
2023-03-29T02:13:38.522Z,53.44
2023-03-29T02:28:40.986Z,52.22
2023-03-29T02:43:44.801Z,53.76
2023-03-29T02:58:46.716Z,53.47
2023-03-29T03:13:48.463Z,59.23
2023-03-29T03:28:50.184Z,56.40
2023-03-29T03:43:52.328Z,55.21
2023-03-29T03:58:54.171Z,53.76
2023-03-29T04:13:57.689Z,51.79
2023-03-29T04:28:59.427Z,55.47
2023-03-29T04:44:02.700Z,40.38
2023-03-29T04:59:04.544Z,41.32
2023-03-29T05:14:07.458Z,43.58
2023-03-29T05:29:09.320Z,44.24
2023-03-29T05:44:11.233Z,44.21
2023-03-29T05:59:13.892Z,44.60
2023-03-29T06:14:15.824Z,45.50
2023-03-29T06:29:17.643Z,45.04
2023-03-29T06:44:19.543Z,44.30
2023-03-29T06:59:21.521Z,43.87
2023-03-29T07:14:26.508Z,42.34
2023-03-29T07:29:29.008Z,41.08
2023-03-29T07:44:30.997Z,41.54
2023-03-29T07:59:32.942Z,37.34
2023-03-29T08:14:36.245Z,33.91
2023-03-29T08:29:38.270Z,32.71
2023-03-29T08:44:45.993Z,31.65
2023-03-29T08:59:52.791Z,31.06
2023-03-29T09:15:08.787Z,31.31
2023-03-29T09:30:26.007Z,30.76
2023-03-29T09:45:28.142Z,28.60
2023-03-29T10:00:30.244Z,26.39
2023-03-29T10:15:32.603Z,26.10
2023-03-29T10:30:40.293Z,26.33
2023-03-29T10:45:42.577Z,26.33
2023-03-29T11:00:51.171Z,27.20
2023-03-29T11:16:01.936Z,26.53
2023-03-29T11:31:13.462Z,27.01
2023-03-29T11:46:28.834Z,26.93
2023-03-29T12:01:36.797Z,27.81
2023-03-29T12:16:50.265Z,26.62
2023-03-29T12:32:11.637Z,26.60
2023-03-29T12:47:23.850Z,26.34
2023-03-29T13:02:35.006Z,26.26
2023-03-29T13:18:10.951Z,25.62
2023-03-29T13:33:58.362Z,25.54
2023-03-29T13:49:13.267Z,26.00
2023-03-29T14:04:24.071Z,24.40
2023-03-29T14:19:34.639Z,24.80
2023-03-29T14:34:36.651Z,24.53
2023-03-29T14:49:38.686Z,25.46
2023-03-29T15:04:41.671Z,27.12
2023-03-29T15:19:46.417Z,27.12
2023-03-29T15:34:59.267Z,29.11
2023-03-29T15:50:01.502Z,30.16
2023-03-29T16:05:03.441Z,31.03
2023-03-29T16:20:06.054Z,31.48
2023-03-29T16:35:29.194Z,32.90
2023-03-29T16:50:31.184Z,33.41
2023-03-29T17:05:38.119Z,34.32
2023-03-29T17:20:40.537Z,33.19
2023-03-29T17:35:44.504Z,32.37
2023-03-29T17:50:48.943Z,33.54
2023-03-29T18:05:51.347Z,33.99
2023-03-29T18:20:53.694Z,34.94
2023-03-29T18:35:55.944Z,34.96
2023-03-29T18:50:58.696Z,36.51
2023-03-29T19:06:02.195Z,36.87
2023-03-29T19:21:05.876Z,36.37
2023-03-29T19:36:08.132Z,36.60
2023-03-29T19:51:10.275Z,37.39
2023-03-29T20:06:12.169Z,38.24
2023-03-29T20:21:17.023Z,36.87
2023-03-29T20:36:23.262Z,37.28
2023-03-29T20:51:32.089Z,37.53
2023-03-29T21:06:35.112Z,37.99
2023-03-29T21:21:37.103Z,38.96
2023-03-29T21:36:39.902Z,38.10
2023-03-29T21:51:41.817Z,38.38
2023-03-29T22:06:43.709Z,39.42
2023-03-29T22:21:46.117Z,39.87
2023-03-29T22:36:47.938Z,40.23
2023-03-29T22:51:49.898Z,42.90
2023-03-29T23:06:51.844Z,41.72
2023-03-29T23:21:53.733Z,42.35
2023-03-29T23:36:55.890Z,43.97
2023-03-29T23:52:00.250Z,45.05
